Terminal Aerodrome Forecast
Issued by NWS

Home | Current Version | Previous Version | Text Only | Print | Product List | Glossary Off
Versions: 1 2 3 4 5 6 7 8 9 10 11 12 13 14 15 16 17 18 19 20

000
FTUS43 KICT 291737
TAFRSL
TAF
KRSL 291737Z 2918/3018 31010KT P6SM SCT060 BKN120
     FM292300 33010KT P6SM VCTS SCT030CB BKN060CB
     FM300300 35015G22KT P6SM SCT020 BKN035
     FM300900 35012KT P6SM SCT020 BKN035=

USA.gov is the U.S. government's official web portal to all federal, state and local government web resources and services.